sensor_id;sensor_type;location;lat;lon;timestamp;P1;durP1;ratioP1;P2;durP2;ratioP2
18501;SDS011;68437;52.236;5.710;2023-10-13T00:01:03;85.35;;;27.95;;
18501;SDS011;68437;52.236;5.710;2023-10-13T00:03:32;72.63;;;26.90;;
18501;SDS011;68437;52.236;5.710;2023-10-13T00:05:58;76.30;;;26.75;;
18501;SDS011;68437;52.236;5.710;2023-10-13T00:08:28;73.60;;;26.65;;
18501;SDS011;68437;52.236;5.710;2023-10-13T00:10:55;75.95;;;26.42;;
18501;SDS011;68437;52.236;5.710;2023-10-13T00:13:25;67.38;;;25.58;;
18501;SDS011;68437;52.236;5.710;2023-10-13T00:15:53;72.72;;;27.45;;
18501;SDS011;68437;52.236;5.710;2023-10-13T00:18:25;75.07;;;26.70;;
18501;SDS011;68437;52.236;5.710;2023-10-13T00:20:58;72.20;;;26.73;;
18501;SDS011;68437;52.236;5.710;2023-10-13T00:23:24;74.40;;;26.83;;
18501;SDS011;68437;52.236;5.710;2023-10-13T00:25:53;78.72;;;26.67;;
18501;SDS011;68437;52.236;5.710;2023-10-13T00:28:27;67.70;;;26.02;;
18501;SDS011;68437;52.236;5.710;2023-10-13T00:31:08;81.40;;;25.83;;
18501;SDS011;68437;52.236;5.710;2023-10-13T00:33:38;69.28;;;25.95;;
18501;SDS011;68437;52.236;5.710;2023-10-13T00:36:06;73.07;;;26.42;;
18501;SDS011;68437;52.236;5.710;2023-10-13T00:38:35;79.22;;;26.33;;
18501;SDS011;68437;52.236;5.710;2023-10-13T00:41:02;69.35;;;26.27;;
18501;SDS011;68437;52.236;5.710;2023-10-13T00:43:44;73.50;;;27.27;;
18501;SDS011;68437;52.236;5.710;2023-10-13T00:46:29;76.68;;;27.25;;
18501;SDS011;68437;52.236;5.710;2023-10-13T00:49:00;72.53;;;27.38;;
18501;SDS011;68437;52.236;5.710;2023-10-13T00:51:30;69.55;;;25.85;;
18501;SDS011;68437;52.236;5.710;2023-10-13T00:54:03;71.57;;;26.70;;
18501;SDS011;68437;52.236;5.710;2023-10-13T00:56:37;69.90;;;25.27;;
18501;SDS011;68437;52.236;5.710;2023-10-13T00:59:06;73.82;;;26.65;;
18501;SDS011;68437;52.236;5.710;2023-10-13T01:01:35;75.75;;;27.27;;
18501;SDS011;68437;52.236;5.710;2023-10-13T01:04:03;71.50;;;25.50;;
18501;SDS011;68437;52.236;5.710;2023-10-13T01:06:33;68.07;;;25.17;;
18501;SDS011;68437;52.236;5.710;2023-10-13T01:09:03;68.85;;;25.65;;
18501;SDS011;68437;52.236;5.710;2023-10-13T01:11:38;73.80;;;27.50;;
18501;SDS011;68437;52.236;5.710;2023-10-13T01:14:05;73.47;;;25.58;;
18501;SDS011;68437;52.236;5.710;2023-10-13T01:16:32;70.60;;;26.95;;
18501;SDS011;68437;52.236;5.710;2023-10-13T01:18:57;69.90;;;26.80;;
18501;SDS011;68437;52.236;5.710;2023-10-13T01:21:31;72.28;;;26.05;;
18501;SDS011;68437;52.236;5.710;2023-10-13T01:23:59;70.93;;;27.15;;
18501;SDS011;68437;52.236;5.710;2023-10-13T01:26:27;70.85;;;26.95;;
18501;SDS011;68437;52.236;5.710;2023-10-13T01:28:56;70.40;;;27.10;;
18501;SDS011;68437;52.236;5.710;2023-10-13T01:31:23;70.95;;;26.73;;
18501;SDS011;68437;52.236;5.710;2023-10-13T01:33:51;78.57;;;28.40;;
18501;SDS011;68437;52.236;5.710;2023-10-13T01:36:20;79.30;;;29.15;;
18501;SDS011;68437;52.236;5.710;2023-10-13T01:38:47;73.95;;;29.38;;
18501;SDS011;68437;52.236;5.710;2023-10-13T01:41:16;80.45;;;31.27;;
18501;SDS011;68437;52.236;5.710;2023-10-13T01:43:44;80.28;;;31.45;;
18501;SDS011;68437;52.236;5.710;2023-10-13T01:46:10;76.53;;;30.63;;
18501;SDS011;68437;52.236;5.710;2023-10-13T01:48:39;76.10;;;31.13;;
18501;SDS011;68437;52.236;5.710;2023-10-13T01:51:06;72.70;;;29.98;;
18501;SDS011;68437;52.236;5.710;2023-10-13T01:53:35;74.45;;;31.38;;
18501;SDS011;68437;52.236;5.710;2023-10-13T01:56:03;76.85;;;31.27;;
18501;SDS011;68437;52.236;5.710;2023-10-13T01:58:36;73.53;;;30.13;;
18501;SDS011;68437;52.236;5.710;2023-10-13T02:01:06;71.55;;;30.33;;
18501;SDS011;68437;52.236;5.710;2023-10-13T02:03:33;69.95;;;29.90;;
18501;SDS011;68437;52.236;5.710;2023-10-13T02:06:02;77.50;;;30.90;;
18501;SDS011;68437;52.236;5.710;2023-10-13T02:08:30;67.90;;;29.15;;
18501;SDS011;68437;52.236;5.710;2023-10-13T02:10:57;69.70;;;31.27;;
18501;SDS011;68437;52.236;5.710;2023-10-13T02:13:24;70.65;;;30.02;;
18501;SDS011;68437;52.236;5.710;2023-10-13T02:15:56;66.22;;;30.92;;
18501;SDS011;68437;52.236;5.710;2023-10-13T02:18:23;68.38;;;31.75;;
18501;SDS011;68437;52.236;5.710;2023-10-13T02:20:52;71.15;;;31.48;;
18501;SDS011;68437;52.236;5.710;2023-10-13T02:23:20;67.25;;;30.08;;
18501;SDS011;68437;52.236;5.710;2023-10-13T02:25:48;67.28;;;30.48;;
18501;SDS011;68437;52.236;5.710;2023-10-13T02:28:17;65.10;;;31.17;;
18501;SDS011;68437;52.236;5.710;2023-10-13T02:30:53;70.57;;;30.38;;
18501;SDS011;68437;52.236;5.710;2023-10-13T02:33:20;64.18;;;30.38;;
18501;SDS011;68437;52.236;5.710;2023-10-13T02:35:47;65.28;;;29.95;;
18501;SDS011;68437;52.236;5.710;2023-10-13T02:38:18;56.72;;;27.58;;
18501;SDS011;68437;52.236;5.710;2023-10-13T02:40:53;63.13;;;29.42;;
18501;SDS011;68437;52.236;5.710;2023-10-13T02:43:19;62.22;;;27.25;;
18501;SDS011;68437;52.236;5.710;2023-10-13T02:45:56;63.97;;;27.30;;
18501;SDS011;68437;52.236;5.710;2023-10-13T02:48:25;62.17;;;27.17;;
18501;SDS011;68437;52.236;5.710;2023-10-13T02:50:56;61.70;;;27.25;;
18501;SDS011;68437;52.236;5.710;2023-10-13T02:53:26;53.97;;;26.15;;
18501;SDS011;68437;52.236;5.710;2023-10-13T02:55:54;59.08;;;26.88;;
18501;SDS011;68437;52.236;5.710;2023-10-13T02:58:23;55.00;;;25.80;;
18501;SDS011;68437;52.236;5.710;2023-10-13T03:01:03;56.20;;;25.15;;
18501;SDS011;68437;52.236;5.710;2023-10-13T03:03:43;51.83;;;24.65;;
18501;SDS011;68437;52.236;5.710;2023-10-13T03:06:15;56.75;;;25.33;;
18501;SDS011;68437;52.236;5.710;2023-10-13T03:08:42;52.50;;;24.70;;
18501;SDS011;68437;52.236;5.710;2023-10-13T03:11:09;51.03;;;24.00;;
18501;SDS011;68437;52.236;5.710;2023-10-13T03:13:36;48.17;;;23.33;;
18501;SDS011;68437;52.236;5.710;2023-10-13T03:16:12;51.85;;;24.38;;
18501;SDS011;68437;52.236;5.710;2023-10-13T03:18:41;54.28;;;24.90;;
18501;SDS011;68437;52.236;5.710;2023-10-13T03:21:21;52.85;;;24.45;;
18501;SDS011;68437;52.236;5.710;2023-10-13T03:23:55;53.78;;;24.02;;
18501;SDS011;68437;52.236;5.710;2023-10-13T03:26:28;56.30;;;24.30;;
18501;SDS011;68437;52.236;5.710;2023-10-13T03:28:59;56.22;;;25.42;;
18501;SDS011;68437;52.236;5.710;2023-10-13T03:31:28;53.55;;;24.33;;
18501;SDS011;68437;52.236;5.710;2023-10-13T03:33:55;49.17;;;23.75;;
18501;SDS011;68437;52.236;5.710;2023-10-13T03:36:24;52.08;;;24.25;;
18501;SDS011;68437;52.236;5.710;2023-10-13T03:39:22;51.50;;;24.35;;
18501;SDS011;68437;52.236;5.710;2023-10-13T03:41:54;59.03;;;24.15;;
18501;SDS011;68437;52.236;5.710;2023-10-13T03:44:21;55.05;;;24.20;;
18501;SDS011;68437;52.236;5.710;2023-10-13T03:46:48;52.05;;;23.05;;
18501;SDS011;68437;52.236;5.710;2023-10-13T03:49:20;48.15;;;22.95;;
18501;SDS011;68437;52.236;5.710;2023-10-13T03:51:50;48.03;;;21.50;;
18501;SDS011;68437;52.236;5.710;2023-10-13T03:54:19;46.97;;;21.48;;
18501;SDS011;68437;52.236;5.710;2023-10-13T03:56:46;45.58;;;22.45;;
18501;SDS011;68437;52.236;5.710;2023-10-13T03:59:17;52.78;;;23.17;;
18501;SDS011;68437;52.236;5.710;2023-10-13T04:01:44;44.17;;;21.60;;
18501;SDS011;68437;52.236;5.710;2023-10-13T04:04:16;48.42;;;22.08;;
18501;SDS011;68437;52.236;5.710;2023-10-13T04:07:00;46.15;;;22.00;;
18501;SDS011;68437;52.236;5.710;2023-10-13T04:09:41;44.33;;;21.05;;
18501;SDS011;68437;52.236;5.710;2023-10-13T04:12:25;42.25;;;21.27;;
18501;SDS011;68437;52.236;5.710;2023-10-13T04:15:09;40.55;;;19.95;;
18501;SDS011;68437;52.236;5.710;2023-10-13T04:17:48;42.28;;;20.30;;
18501;SDS011;68437;52.236;5.710;2023-10-13T04:20:16;45.53;;;20.65;;
18501;SDS011;68437;52.236;5.710;2023-10-13T04:23:01;43.83;;;20.67;;
18501;SDS011;68437;52.236;5.710;2023-10-13T04:25:44;41.72;;;20.40;;
18501;SDS011;68437;52.236;5.710;2023-10-13T04:28:40;40.88;;;19.85;;
18501;SDS011;68437;52.236;5.710;2023-10-13T04:31:17;41.13;;;20.50;;
18501;SDS011;68437;52.236;5.710;2023-10-13T04:34:09;43.53;;;20.08;;
18501;SDS011;68437;52.236;5.710;2023-10-13T04:36:44;41.28;;;20.20;;
18501;SDS011;68437;52.236;5.710;2023-10-13T04:39:12;42.53;;;19.77;;
18501;SDS011;68437;52.236;5.710;2023-10-13T04:41:54;41.28;;;18.58;;
18501;SDS011;68437;52.236;5.710;2023-10-13T04:44:23;37.88;;;19.13;;
18501;SDS011;68437;52.236;5.710;2023-10-13T04:47:08;41.15;;;18.70;;
18501;SDS011;68437;52.236;5.710;2023-10-13T04:49:42;35.78;;;18.52;;
18501;SDS011;68437;52.236;5.710;2023-10-13T04:52:16;40.38;;;19.30;;
18501;SDS011;68437;52.236;5.710;2023-10-13T04:54:59;38.95;;;19.27;;
18501;SDS011;68437;52.236;5.710;2023-10-13T04:57:35;42.67;;;18.58;;
18501;SDS011;68437;52.236;5.710;2023-10-13T05:00:12;33.22;;;17.52;;
18501;SDS011;68437;52.236;5.710;2023-10-13T05:02:57;36.90;;;17.13;;
18501;SDS011;68437;52.236;5.710;2023-10-13T05:05:42;37.17;;;18.05;;
18501;SDS011;68437;52.236;5.710;2023-10-13T05:08:34;34.95;;;17.15;;
18501;SDS011;68437;52.236;5.710;2023-10-13T05:11:28;35.80;;;17.55;;
18501;SDS011;68437;52.236;5.710;2023-10-13T05:14:12;31.80;;;17.02;;
18501;SDS011;68437;52.236;5.710;2023-10-13T05:16:56;30.13;;;16.33;;
18501;SDS011;68437;52.236;5.710;2023-10-13T05:19:40;32.70;;;15.85;;
18501;SDS011;68437;52.236;5.710;2023-10-13T05:22:24;30.70;;;15.55;;
18501;SDS011;68437;52.236;5.710;2023-10-13T05:25:08;34.17;;;16.33;;
18501;SDS011;68437;52.236;5.710;2023-10-13T05:27:54;34.10;;;15.95;;
18501;SDS011;68437;52.236;5.710;2023-10-13T05:30:38;29.60;;;15.15;;
18501;SDS011;68437;52.236;5.710;2023-10-13T05:33:23;28.92;;;14.98;;
18501;SDS011;68437;52.236;5.710;2023-10-13T05:36:09;30.73;;;15.63;;
18501;SDS011;68437;52.236;5.710;2023-10-13T05:38:54;32.97;;;16.92;;
18501;SDS011;68437;52.236;5.710;2023-10-13T05:41:38;36.17;;;16.38;;
18501;SDS011;68437;52.236;5.710;2023-10-13T05:44:23;37.35;;;17.23;;
18501;SDS011;68437;52.236;5.710;2023-10-13T05:47:02;35.13;;;17.42;;
18501;SDS011;68437;52.236;5.710;2023-10-13T05:49:43;38.33;;;17.90;;
18501;SDS011;68437;52.236;5.710;2023-10-13T05:52:29;38.60;;;18.42;;
18501;SDS011;68437;52.236;5.710;2023-10-13T05:55:13;40.42;;;17.58;;
18501;SDS011;68437;52.236;5.710;2023-10-13T05:58:08;43.65;;;18.20;;
18501;SDS011;68437;52.236;5.710;2023-10-13T06:00:55;33.63;;;17.45;;
18501;SDS011;68437;52.236;5.710;2023-10-13T06:03:40;38.28;;;17.42;;
18501;SDS011;68437;52.236;5.710;2023-10-13T06:06:24;34.97;;;16.08;;
18501;SDS011;68437;52.236;5.710;2023-10-13T06:09:08;34.67;;;15.27;;
18501;SDS011;68437;52.236;5.710;2023-10-13T06:11:52;32.78;;;14.05;;
18501;SDS011;68437;52.236;5.710;2023-10-13T06:14:36;29.23;;;13.00;;
18501;SDS011;68437;52.236;5.710;2023-10-13T06:17:22;29.17;;;13.52;;
18501;SDS011;68437;52.236;5.710;2023-10-13T06:20:07;32.42;;;14.10;;
18501;SDS011;68437;52.236;5.710;2023-10-13T06:22:52;27.77;;;13.45;;
18501;SDS011;68437;52.236;5.710;2023-10-13T06:25:37;32.20;;;13.02;;
18501;SDS011;68437;52.236;5.710;2023-10-13T06:28:21;31.67;;;13.02;;
18501;SDS011;68437;52.236;5.710;2023-10-13T06:31:06;26.98;;;13.15;;
18501;SDS011;68437;52.236;5.710;2023-10-13T06:33:34;29.92;;;12.73;;
18501;SDS011;68437;52.236;5.710;2023-10-13T06:36:07;31.83;;;13.75;;
18501;SDS011;68437;52.236;5.710;2023-10-13T06:38:34;32.47;;;13.38;;
18501;SDS011;68437;52.236;5.710;2023-10-13T06:41:02;33.50;;;13.82;;
18501;SDS011;68437;52.236;5.710;2023-10-13T06:43:30;36.53;;;15.18;;
18501;SDS011;68437;52.236;5.710;2023-10-13T06:45:58;34.47;;;15.32;;
18501;SDS011;68437;52.236;5.710;2023-10-13T06:48:27;33.97;;;16.27;;
18501;SDS011;68437;52.236;5.710;2023-10-13T06:50:59;42.67;;;15.85;;
18501;SDS011;68437;52.236;5.710;2023-10-13T06:53:31;35.40;;;16.50;;
18501;SDS011;68437;52.236;5.710;2023-10-13T06:56:05;37.33;;;17.50;;
18501;SDS011;68437;52.236;5.710;2023-10-13T06:58:34;41.63;;;18.15;;
18501;SDS011;68437;52.236;5.710;2023-10-13T07:01:06;36.60;;;18.17;;
18501;SDS011;68437;52.236;5.710;2023-10-13T07:03:40;37.83;;;18.55;;
18501;SDS011;68437;52.236;5.710;2023-10-13T07:06:08;34.50;;;18.05;;
18501;SDS011;68437;52.236;5.710;2023-10-13T07:08:37;40.88;;;19.95;;
18501;SDS011;68437;52.236;5.710;2023-10-13T07:11:04;38.00;;;19.30;;
18501;SDS011;68437;52.236;5.710;2023-10-13T07:13:33;34.40;;;19.50;;
18501;SDS011;68437;52.236;5.710;2023-10-13T07:16:03;42.70;;;20.63;;
18501;SDS011;68437;52.236;5.710;2023-10-13T07:18:33;34.67;;;19.67;;
18501;SDS011;68437;52.236;5.710;2023-10-13T07:21:02;38.70;;;20.65;;
18501;SDS011;68437;52.236;5.710;2023-10-13T07:23:36;37.53;;;20.83;;
18501;SDS011;68437;52.236;5.710;2023-10-13T07:26:04;43.35;;;22.08;;
18501;SDS011;68437;52.236;5.710;2023-10-13T07:28:34;40.28;;;21.85;;
18501;SDS011;68437;52.236;5.710;2023-10-13T07:31:08;45.22;;;21.83;;
18501;SDS011;68437;52.236;5.710;2023-10-13T07:33:41;38.05;;;21.15;;
18501;SDS011;68437;52.236;5.710;2023-10-13T07:36:08;45.47;;;20.92;;
18501;SDS011;68437;52.236;5.710;2023-10-13T07:38:44;36.15;;;19.73;;
18501;SDS011;68437;52.236;5.710;2023-10-13T07:41:17;36.80;;;19.35;;
18501;SDS011;68437;52.236;5.710;2023-10-13T07:43:47;44.60;;;19.90;;
18501;SDS011;68437;52.236;5.710;2023-10-13T07:46:15;38.75;;;19.90;;
18501;SDS011;68437;52.236;5.710;2023-10-13T07:48:42;36.53;;;18.40;;
18501;SDS011;68437;52.236;5.710;2023-10-13T07:51:10;33.53;;;17.58;;
18501;SDS011;68437;52.236;5.710;2023-10-13T07:53:41;33.15;;;17.17;;
18501;SDS011;68437;52.236;5.710;2023-10-13T07:56:10;39.15;;;17.02;;
18501;SDS011;68437;52.236;5.710;2023-10-13T07:58:37;36.53;;;15.80;;
18501;SDS011;68437;52.236;5.710;2023-10-13T08:01:13;34.78;;;16.55;;
18501;SDS011;68437;52.236;5.710;2023-10-13T08:03:43;33.17;;;14.73;;
18501;SDS011;68437;52.236;5.710;2023-10-13T08:06:11;38.55;;;15.27;;
18501;SDS011;68437;52.236;5.710;2023-10-13T08:08:46;35.67;;;15.13;;
18501;SDS011;68437;52.236;5.710;2023-10-13T08:11:19;34.90;;;14.77;;
18501;SDS011;68437;52.236;5.710;2023-10-13T08:13:56;34.75;;;14.70;;
18501;SDS011;68437;52.236;5.710;2023-10-13T08:16:25;37.00;;;14.18;;
18501;SDS011;68437;52.236;5.710;2023-10-13T08:19:10;26.83;;;13.65;;
18501;SDS011;68437;52.236;5.710;2023-10-13T08:21:40;32.63;;;13.77;;
18501;SDS011;68437;52.236;5.710;2023-10-13T08:24:14;30.40;;;14.07;;
18501;SDS011;68437;52.236;5.710;2023-10-13T08:26:43;32.63;;;13.70;;
18501;SDS011;68437;52.236;5.710;2023-10-13T08:29:39;25.77;;;12.80;;
18501;SDS011;68437;52.236;5.710;2023-10-13T08:32:19;28.75;;;12.55;;
18501;SDS011;68437;52.236;5.710;2023-10-13T08:35:01;27.42;;;12.07;;
18501;SDS011;68437;52.236;5.710;2023-10-13T08:37:47;34.08;;;12.50;;
18501;SDS011;68437;52.236;5.710;2023-10-13T08:40:26;29.42;;;11.35;;
18501;SDS011;68437;52.236;5.710;2023-10-13T08:43:12;25.85;;;12.70;;
18501;SDS011;68437;52.236;5.710;2023-10-13T08:45:43;27.52;;;11.90;;
18501;SDS011;68437;52.236;5.710;2023-10-13T08:48:18;28.25;;;11.88;;
18501;SDS011;68437;52.236;5.710;2023-10-13T08:50:51;27.48;;;11.13;;
18501;SDS011;68437;52.236;5.710;2023-10-13T08:53:21;29.27;;;11.15;;
18501;SDS011;68437;52.236;5.710;2023-10-13T08:55:51;25.63;;;10.73;;
18501;SDS011;68437;52.236;5.710;2023-10-13T08:58:32;26.10;;;10.80;;
18501;SDS011;68437;52.236;5.710;2023-10-13T09:01:17;24.45;;;10.45;;
18501;SDS011;68437;52.236;5.710;2023-10-13T09:03:58;29.52;;;10.68;;
18501;SDS011;68437;52.236;5.710;2023-10-13T09:06:46;23.95;;;10.07;;
18501;SDS011;68437;52.236;5.710;2023-10-13T09:09:14;30.92;;;10.90;;
18501;SDS011;68437;52.236;5.710;2023-10-13T09:11:59;28.48;;;10.32;;
18501;SDS011;68437;52.236;5.710;2023-10-13T09:14:34;36.15;;;10.80;;
18501;SDS011;68437;52.236;5.710;2023-10-13T09:17:06;28.05;;;9.75;;
18501;SDS011;68437;52.236;5.710;2023-10-13T09:19:47;27.80;;;9.60;;
18501;SDS011;68437;52.236;5.710;2023-10-13T09:22:24;19.23;;;9.55;;
18501;SDS011;68437;52.236;5.710;2023-10-13T09:24:54;28.45;;;10.27;;
18501;SDS011;68437;52.236;5.710;2023-10-13T09:27:24;24.20;;;9.50;;
18501;SDS011;68437;52.236;5.710;2023-10-13T09:30:00;27.90;;;10.20;;
18501;SDS011;68437;52.236;5.710;2023-10-13T09:32:34;23.33;;;9.65;;
18501;SDS011;68437;52.236;5.710;2023-10-13T09:35:10;20.92;;;9.13;;
18501;SDS011;68437;52.236;5.710;2023-10-13T09:37:44;27.10;;;9.73;;
18501;SDS011;68437;52.236;5.710;2023-10-13T09:40:11;24.83;;;9.48;;
18501;SDS011;68437;52.236;5.710;2023-10-13T09:42:54;26.77;;;9.55;;
18501;SDS011;68437;52.236;5.710;2023-10-13T09:45:28;23.52;;;9.27;;
18501;SDS011;68437;52.236;5.710;2023-10-13T09:48:01;22.15;;;9.30;;
18501;SDS011;68437;52.236;5.710;2023-10-13T09:50:32;24.58;;;8.73;;
18501;SDS011;68437;52.236;5.710;2023-10-13T09:53:02;24.98;;;9.13;;
18501;SDS011;68437;52.236;5.710;2023-10-13T09:55:35;18.80;;;8.57;;
18501;SDS011;68437;52.236;5.710;2023-10-13T09:58:04;29.27;;;8.95;;
18501;SDS011;68437;52.236;5.710;2023-10-13T10:00:41;22.95;;;9.30;;
18501;SDS011;68437;52.236;5.710;2023-10-13T10:03:22;23.23;;;8.70;;
18501;SDS011;68437;52.236;5.710;2023-10-13T10:06:07;22.30;;;8.75;;
18501;SDS011;68437;52.236;5.710;2023-10-13T10:08:43;25.05;;;8.98;;
18501;SDS011;68437;52.236;5.710;2023-10-13T10:11:23;22.92;;;9.00;;
18501;SDS011;68437;52.236;5.710;2023-10-13T10:14:13;21.85;;;9.07;;
18501;SDS011;68437;52.236;5.710;2023-10-13T10:16:50;27.90;;;9.90;;
18501;SDS011;68437;52.236;5.710;2023-10-13T10:19:26;26.33;;;9.13;;
18501;SDS011;68437;52.236;5.710;2023-10-13T10:22:00;33.40;;;9.23;;
18501;SDS011;68437;52.236;5.710;2023-10-13T10:24:33;22.80;;;8.73;;
18501;SDS011;68437;52.236;5.710;2023-10-13T10:27:03;21.15;;;8.57;;
18501;SDS011;68437;52.236;5.710;2023-10-13T10:29:30;24.02;;;8.93;;
18501;SDS011;68437;52.236;5.710;2023-10-13T10:31:59;29.27;;;8.77;;
18501;SDS011;68437;52.236;5.710;2023-10-13T10:34:31;26.13;;;8.75;;
18501;SDS011;68437;52.236;5.710;2023-10-13T10:37:00;32.45;;;9.68;;
18501;SDS011;68437;52.236;5.710;2023-10-13T10:39:34;25.05;;;8.50;;
18501;SDS011;68437;52.236;5.710;2023-10-13T10:42:10;25.48;;;8.57;;
18501;SDS011;68437;52.236;5.710;2023-10-13T10:44:42;22.10;;;8.15;;
18501;SDS011;68437;52.236;5.710;2023-10-13T10:47:14;20.17;;;8.30;;
18501;SDS011;68437;52.236;5.710;2023-10-13T10:49:55;30.25;;;8.88;;
18501;SDS011;68437;52.236;5.710;2023-10-13T10:52:22;28.15;;;8.82;;
18501;SDS011;68437;52.236;5.710;2023-10-13T10:54:58;25.35;;;8.63;;
18501;SDS011;68437;52.236;5.710;2023-10-13T10:57:25;31.63;;;8.38;;
18501;SDS011;68437;52.236;5.710;2023-10-13T10:59:54;21.88;;;8.73;;
18501;SDS011;68437;52.236;5.710;2023-10-13T11:02:37;27.13;;;8.35;;
18501;SDS011;68437;52.236;5.710;2023-10-13T11:05:05;24.17;;;8.73;;
18501;SDS011;68437;52.236;5.710;2023-10-13T11:07:34;29.30;;;9.00;;
18501;SDS011;68437;52.236;5.710;2023-10-13T11:10:06;26.10;;;8.35;;
18501;SDS011;68437;52.236;5.710;2023-10-13T11:12:37;21.95;;;8.35;;
18501;SDS011;68437;52.236;5.710;2023-10-13T11:15:05;22.50;;;8.25;;
18501;SDS011;68437;52.236;5.710;2023-10-13T11:17:40;24.58;;;8.80;;
18501;SDS011;68437;52.236;5.710;2023-10-13T11:20:16;20.95;;;8.43;;
18501;SDS011;68437;52.236;5.710;2023-10-13T11:22:50;28.85;;;8.73;;
18501;SDS011;68437;52.236;5.710;2023-10-13T11:25:21;23.77;;;8.23;;
18501;SDS011;68437;52.236;5.710;2023-10-13T11:27:54;26.60;;;8.50;;
18501;SDS011;68437;52.236;5.710;2023-10-13T11:30:23;24.65;;;8.65;;
18501;SDS011;68437;52.236;5.710;2023-10-13T11:32:59;31.00;;;9.00;;
18501;SDS011;68437;52.236;5.710;2023-10-13T11:35:30;21.10;;;8.32;;
18501;SDS011;68437;52.236;5.710;2023-10-13T11:38:11;23.02;;;8.40;;
18501;SDS011;68437;52.236;5.710;2023-10-13T11:40:39;25.70;;;9.13;;
18501;SDS011;68437;52.236;5.710;2023-10-13T11:43:31;26.23;;;8.00;;
18501;SDS011;68437;52.236;5.710;2023-10-13T11:46:05;29.05;;;8.73;;
18501;SDS011;68437;52.236;5.710;2023-10-13T11:48:44;27.55;;;8.05;;
18501;SDS011;68437;52.236;5.710;2023-10-13T11:51:11;26.02;;;7.78;;
18501;SDS011;68437;52.236;5.710;2023-10-13T11:53:42;25.40;;;8.18;;
18501;SDS011;68437;52.236;5.710;2023-10-13T11:56:13;25.98;;;7.70;;
18501;SDS011;68437;52.236;5.710;2023-10-13T11:58:42;26.65;;;8.23;;
18501;SDS011;68437;52.236;5.710;2023-10-13T12:01:11;20.58;;;8.13;;
18501;SDS011;68437;52.236;5.710;2023-10-13T12:03:48;34.85;;;8.57;;
18501;SDS011;68437;52.236;5.710;2023-10-13T12:06:35;28.58;;;8.30;;
18501;SDS011;68437;52.236;5.710;2023-10-13T12:09:12;24.50;;;8.55;;
18501;SDS011;68437;52.236;5.710;2023-10-13T12:12:01;25.55;;;8.02;;
18501;SDS011;68437;52.236;5.710;2023-10-13T12:14:29;25.85;;;8.10;;
18501;SDS011;68437;52.236;5.710;2023-10-13T12:17:02;25.00;;;8.57;;
18501;SDS011;68437;52.236;5.710;2023-10-13T12:19:36;29.55;;;8.65;;
18501;SDS011;68437;52.236;5.710;2023-10-13T12:22:04;24.17;;;8.93;;
18501;SDS011;68437;52.236;5.710;2023-10-13T12:24:34;21.95;;;8.48;;
18501;SDS011;68437;52.236;5.710;2023-10-13T12:27:07;24.20;;;8.75;;
18501;SDS011;68437;52.236;5.710;2023-10-13T12:29:45;24.17;;;8.27;;
18501;SDS011;68437;52.236;5.710;2023-10-13T12:32:12;29.98;;;8.80;;
18501;SDS011;68437;52.236;5.710;2023-10-13T12:34:41;34.13;;;8.98;;
18501;SDS011;68437;52.236;5.710;2023-10-13T12:37:25;24.92;;;8.50;;
18501;SDS011;68437;52.236;5.710;2023-10-13T12:40:16;31.83;;;8.57;;
18501;SDS011;68437;52.236;5.710;2023-10-13T12:42:57;25.40;;;8.65;;
18501;SDS011;68437;52.236;5.710;2023-10-13T12:45:42;25.45;;;8.68;;
18501;SDS011;68437;52.236;5.710;2023-10-13T12:48:27;29.23;;;9.18;;
18501;SDS011;68437;52.236;5.710;2023-10-13T12:51:13;27.05;;;8.30;;
18501;SDS011;68437;52.236;5.710;2023-10-13T12:53:46;31.08;;;8.80;;
18501;SDS011;68437;52.236;5.710;2023-10-13T12:56:13;24.33;;;8.13;;
18501;SDS011;68437;52.236;5.710;2023-10-13T12:58:40;30.27;;;8.25;;
18501;SDS011;68437;52.236;5.710;2023-10-13T13:01:16;21.52;;;8.32;;
18501;SDS011;68437;52.236;5.710;2023-10-13T13:03:45;25.00;;;9.10;;
18501;SDS011;68437;52.236;5.710;2023-10-13T13:06:16;24.15;;;8.70;;
18501;SDS011;68437;52.236;5.710;2023-10-13T13:08:49;20.75;;;8.45;;
18501;SDS011;68437;52.236;5.710;2023-10-13T13:11:16;22.38;;;8.70;;
18501;SDS011;68437;52.236;5.710;2023-10-13T13:13:44;23.35;;;8.23;;
18501;SDS011;68437;52.236;5.710;2023-10-13T13:16:11;28.88;;;8.82;;
18501;SDS011;68437;52.236;5.710;2023-10-13T13:18:38;28.05;;;8.60;;
18501;SDS011;68437;52.236;5.710;2023-10-13T13:21:05;23.67;;;8.77;;
18501;SDS011;68437;52.236;5.710;2023-10-13T13:23:38;28.98;;;9.15;;
18501;SDS011;68437;52.236;5.710;2023-10-13T13:26:06;32.30;;;9.32;;
18501;SDS011;68437;52.236;5.710;2023-10-13T13:28:40;25.73;;;9.30;;
18501;SDS011;68437;52.236;5.710;2023-10-13T13:31:07;31.73;;;9.35;;
18501;SDS011;68437;52.236;5.710;2023-10-13T13:33:37;29.92;;;9.73;;
18501;SDS011;68437;52.236;5.710;2023-10-13T13:36:07;25.17;;;9.40;;
18501;SDS011;68437;52.236;5.710;2023-10-13T13:38:40;23.83;;;9.80;;
18501;SDS011;68437;52.236;5.710;2023-10-13T13:41:11;25.05;;;9.60;;
18501;SDS011;68437;52.236;5.710;2023-10-13T13:43:41;26.40;;;10.20;;
18501;SDS011;68437;52.236;5.710;2023-10-13T13:46:19;20.67;;;9.48;;
18501;SDS011;68437;52.236;5.710;2023-10-13T13:48:50;27.45;;;10.35;;
18501;SDS011;68437;52.236;5.710;2023-10-13T13:51:23;22.95;;;10.68;;
18501;SDS011;68437;52.236;5.710;2023-10-13T13:53:54;34.28;;;11.23;;
18501;SDS011;68437;52.236;5.710;2023-10-13T13:56:22;30.48;;;10.40;;
18501;SDS011;68437;52.236;5.710;2023-10-13T13:58:50;39.75;;;11.57;;
18501;SDS011;68437;52.236;5.710;2023-10-13T14:01:19;27.17;;;10.88;;
18501;SDS011;68437;52.236;5.710;2023-10-13T14:03:48;32.72;;;11.57;;
18501;SDS011;68437;52.236;5.710;2023-10-13T14:06:16;30.42;;;11.63;;
18501;SDS011;68437;52.236;5.710;2023-10-13T14:08:46;32.33;;;11.18;;
18501;SDS011;68437;52.236;5.710;2023-10-13T14:11:20;30.00;;;11.45;;
18501;SDS011;68437;52.236;5.710;2023-10-13T14:14:09;27.17;;;11.43;;
18501;SDS011;68437;52.236;5.710;2023-10-13T14:16:41;32.25;;;11.75;;
18501;SDS011;68437;52.236;5.710;2023-10-13T14:19:10;29.08;;;11.68;;
18501;SDS011;68437;52.236;5.710;2023-10-13T14:21:38;25.85;;;11.15;;
18501;SDS011;68437;52.236;5.710;2023-10-13T14:24:05;28.30;;;11.48;;
18501;SDS011;68437;52.236;5.710;2023-10-13T14:26:40;30.00;;;11.73;;
18501;SDS011;68437;52.236;5.710;2023-10-13T14:29:08;32.70;;;12.15;;
18501;SDS011;68437;52.236;5.710;2023-10-13T14:31:39;37.33;;;11.48;;
18501;SDS011;68437;52.236;5.710;2023-10-13T14:34:06;29.15;;;11.27;;
18501;SDS011;68437;52.236;5.710;2023-10-13T14:36:33;34.08;;;12.07;;
18501;SDS011;68437;52.236;5.710;2023-10-13T14:39:01;34.97;;;12.75;;
18501;SDS011;68437;52.236;5.710;2023-10-13T14:41:28;33.42;;;12.27;;
18501;SDS011;68437;52.236;5.710;2023-10-13T14:43:57;31.30;;;12.60;;
18501;SDS011;68437;52.236;5.710;2023-10-13T14:46:30;30.58;;;12.18;;
18501;SDS011;68437;52.236;5.710;2023-10-13T14:49:00;30.42;;;11.88;;
18501;SDS011;68437;52.236;5.710;2023-10-13T14:51:28;30.63;;;12.55;;
18501;SDS011;68437;52.236;5.710;2023-10-13T14:53:56;33.80;;;12.82;;
18501;SDS011;68437;52.236;5.710;2023-10-13T14:56:25;30.80;;;11.93;;
18501;SDS011;68437;52.236;5.710;2023-10-13T14:58:54;31.77;;;12.35;;
18501;SDS011;68437;52.236;5.710;2023-10-13T15:01:23;30.65;;;12.10;;
18501;SDS011;68437;52.236;5.710;2023-10-13T15:03:52;33.92;;;11.82;;